Aérodrome :
LOGIN :

S'inscrire | Disclaimer

   EN    FR    IT 

 










Légende :    VFR   VFR Marginal   IFR   IFR Intensif   IFR Très Intensif
Visi : 
Plafond : 
>= 8 km
>= 3000ft
5 à 8 km
1000 à 3000 ft
1500m à 5 km
500 à 1000 ft
800 à 1500m
200 à 500 ft
< 800m
< 200 ft
Symboles :   Orages  Brouillard  Fortes neiges  Fortes précipitations  Vent > 20 kt
SIGMETs :   Divers  Orages  Givrage  Turbulence  Onde Orograph.  Cendres Volcan.







- Altitude de l'aérodrome : 187 ft


ETNW - Wunstorf AB

DERNIER METAR :
  • 231520Z AUTO 27004KT //// // ////// 18/12 Q1023 ///

METARs EXPIRÉS :
  • 231420Z AUTO 28004KT //// // ////// 18/10 Q1023 ///
  • 231320Z AUTO 27002KT //// // ////// 18/12 Q1023 ///

TAF TAF ETNW
Valide du 23 à 11h jusqu'au 24 à 11h UTC


231011Z 2311/2411 32006KT 9999 NSW FEW010 SCT050 BKN090
TEMPO 2311/2318 32012KT 9999 NSW FEW025 BKN050
BECMG 2323/2402 03005KT 5000 NSW FEW005 SCT010 BKN020
TEMPO 2402/2408 VRB03KT 2000 BR BKN005 OVC012
PROB30 2403/2407 VRB01KT 0500 FG VV001 CANCEL BY ETGL
Pas de NOTAMs connus pour ce terrain.



MET'MAP, la Météo Aéronautique d'un coup d'oeil ! - Copyright ORBIFLY Décembre 2007 - Disclaimer

ORBIFLY MET'MAP TEAM :

Programmation & Développement : Alexandra Zaïnal
Conception & Développement : Baudouin d'Aumeries
Co-Programmation & Développement : Marc-Olivier Méhu
Soutien technique & logistique : Manuel Goepfert

Contact : metmap@orbifly.com




SOURCES & CREDITS :

   NOAA